H.kanter — ESUB — position and weather

sailwx.info

Track history (hours):
 
Tides and Currents Weather Stations Pressure Air Temp Water Temp Dewpoint Dewpoint Depression Visibility Wind Speed Wind Dir Waves Ship Positions

H.kanter

Last reported at 2018-Apr-26 07:30 UTC. Time now 2018-Apr-26 07:55 UTC.
Position N 59°30' E 024°56'.

Length 30 m; draft 4.8 m.

Type: Tug. MMSI: 276504000.

Date/timePositionNaut miles runAvg speedWind from/ knotsBaromVisibWave heightAir tempDewpointWater temp
2018-Apr-26 07:30N 59°30' E 024°56'0 0.0
2018-Apr-26 07:00N 59°30' E 024°56'0 0.0
2018-Apr-26 06:30N 59°30' E 024°56'0 0.0
2018-Apr-26 06:00N 59°30' E 024°56'0 0.0
2018-Apr-26 05:30N 59°30' E 024°56'0 0.0
2018-Apr-26 05:00N 59°30' E 024°56'0 0.0
2018-Apr-26 04:30N 59°30' E 024°56'0 0.0
2018-Apr-26 04:00N 59°30' E 024°56'0 0.0
2018-Apr-26 03:30N 59°30' E 024°56'0 0.0
2018-Apr-26 03:01N 59°30' E 024°56'0 0.0
2018-Apr-26 02:30N 59°30' E 024°56'0 0.0
2018-Apr-26 02:00N 59°30' E 024°56'0 0.0
2018-Apr-26 01:30N 59°30' E 024°56'0 0.0
2018-Apr-26 01:00N 59°30' E 024°56'0 0.0
2018-Apr-26 00:30N 59°30' E 024°56'0 0.0
2018-Apr-26 00:01N 59°30' E 024°56'0 0.0
2018-Apr-25 23:29N 59°30' E 024°56'0 0.0
2018-Apr-25 23:00N 59°30' E 024°56'0 0.0
2018-Apr-25 22:30N 59°30' E 024°56'0 0.0
2018-Apr-25 22:00N 59°30' E 024°56'0 0.0
2018-Apr-25 21:30N 59°30' E 024°56'0 0.0
2018-Apr-25 21:01N 59°30' E 024°56'0 0.0
2018-Apr-25 20:30N 59°30' E 024°56'0 0.0
2018-Apr-25 20:00N 59°30' E 024°56'0 0.0
2018-Apr-25 19:30N 59°30' E 024°56'0 0.0
2018-Apr-25 19:01N 59°30' E 024°56'0 0.0
2018-Apr-25 18:30N 59°30' E 024°56'0 0.0
2018-Apr-25 18:00N 59°30' E 024°56'0 0.0
2018-Apr-25 17:31N 59°30' E 024°56'0 0.0
2018-Apr-25 17:00N 59°30' E 024°56'0 0.0
2018-Apr-25 16:30N 59°30' E 024°56'0 0.0
2018-Apr-25 16:00N 59°30' E 024°56'0 0.0
2018-Apr-25 15:30N 59°30' E 024°56'0 0.0
2018-Apr-25 15:01N 59°30' E 024°56'0 0.0
2018-Apr-25 14:30N 59°30' E 024°56'0 0.0
2018-Apr-25 14:00N 59°30' E 024°56'0 0.0
2018-Apr-25 13:31N 59°30' E 024°56'0 0.0
2018-Apr-25 13:01N 59°30' E 024°56'0 0.0
2018-Apr-25 12:31N 59°30' E 024°56'0 0.0
2018-Apr-25 12:00N 59°30' E 024°56'0 0.0
2018-Apr-25 11:30N 59°30' E 024°56'0 0.0
2018-Apr-25 11:00N 59°30' E 024°56'0 0.0
2018-Apr-25 10:31N 59°30' E 024°56'0 0.0
2018-Apr-25 10:01N 59°30' E 024°56'0 0.0
2018-Apr-25 09:31N 59°30' E 024°56'0 0.0
2018-Apr-25 09:00N 59°30' E 024°56'1 1.8
2018-Apr-25 08:30N 59°29' E 024°58'1 3.0
2018-Apr-25 08:00N 59°31' E 024°58'1 2.5
2018-Apr-25 07:29N 59°30' E 024°56'0 0.0
2018-Apr-25 07:00N 59°30' E 024°56'0 0.0
2018-Apr-25 06:31N 59°30' E 024°56'0 0.0
2018-Apr-25 06:00N 59°30' E 024°56'0 0.0
2018-Apr-25 05:30N 59°30' E 024°56'0 0.0
2018-Apr-25 05:00N 59°30' E 024°56'0 0.0
2018-Apr-25 04:30N 59°30' E 024°56'0 0.0
2018-Apr-25 04:01N 59°30' E 024°56'0 0.0
2018-Apr-25 03:30N 59°30' E 024°56'0 0.0
2018-Apr-25 03:00N 59°30' E 024°56'0 0.0
2018-Apr-25 02:31N 59°30' E 024°56'0 0.0
2018-Apr-25 02:01N 59°30' E 024°56'0 0.0
2018-Apr-25 01:30N 59°30' E 024°56'0 0.0
2018-Apr-25 01:00N 59°30' E 024°56'1 1.0
2018-Apr-25 00:31N 59°30' E 024°57'1 1.5
2018-Apr-25 00:01N 59°30' E 024°57'1 1.6
2018-Apr-24 23:30N 59°30' E 024°56'0 0.0
2018-Apr-24 23:00N 59°30' E 024°56'0 0.0
2018-Apr-24 22:30N 59°30' E 024°56'0 0.0
2018-Apr-24 22:00N 59°30' E 024°56'0 0.0
2018-Apr-24 21:30N 59°30' E 024°56'0 0.0
2018-Apr-24 21:01N 59°30' E 024°56'0 0.0
2018-Apr-24 20:30N 59°30' E 024°56'0 0.0
2018-Apr-24 19:59N 59°30' E 024°56'0 0.0
2018-Apr-24 19:30N 59°30' E 024°56'3 6.3
2018-Apr-24 19:00N 59°33' E 024°55'510.9
2018-Apr-24 18:31N 59°37' E 024°47'3 6.1
2018-Apr-24 18:00N 59°35' E 024°42'5 9.4
2018-Apr-24 17:31N 59°30' E 024°40'3 5.1
2018-Apr-24 16:58N 59°27' E 024°40'0 0.0
2018-Apr-24 16:28N 59°28' E 024°40'0 0.0
2018-Apr-24 15:59N 59°28' E 024°40'0 0.0
2018-Apr-24 15:29N 59°28' E 024°40'0 0.0
2018-Apr-24 15:00N 59°27' E 024°40'0 0.0
2018-Apr-24 14:30N 59°27' E 024°40'0 0.0
2018-Apr-24 14:00N 59°27' E 024°40'0 0.0
2018-Apr-24 13:30N 59°28' E 024°40'0 0.0
2018-Apr-24 12:58N 59°27' E 024°40'0 0.0
2018-Apr-24 12:28N 59°27' E 024°40'0 0.0
2018-Apr-24 11:58N 59°27' E 024°40'0 0.0
2018-Apr-24 11:29N 59°28' E 024°40'0 0.0
2018-Apr-24 10:59N 59°27' E 024°40'0 0.0
2018-Apr-24 10:29N 59°28' E 024°40'0 0.0
2018-Apr-24 10:00N 59°28' E 024°40'0 0.0
2018-Apr-24 09:30N 59°27' E 024°40'0 0.0
2018-Apr-24 09:00N 59°28' E 024°40'0 0.0
2018-Apr-24 08:28N 59°28' E 024°40'0 0.0
2018-Apr-24 07:58N 59°27' E 024°40'0 0.0
2018-Apr-24 07:29N 59°27' E 024°40'0 0.0
2018-Apr-24 06:59N 59°28' E 024°40'0 0.0
2018-Apr-24 06:29N 59°27' E 024°40'0 0.0
2018-Apr-24 05:59N 59°27' E 024°40'0 0.0
2018-Apr-24 05:30N 59°28' E 024°40'0 0.0
2018-Apr-24 04:57N 59°28' E 024°40'0 0.0
2018-Apr-24 04:30N 59°27' E 024°40'0 0.0
2018-Apr-24 03:58N 59°27' E 024°40'0 0.0
2018-Apr-24 03:28N 59°27' E 024°40'0 0.0
2018-Apr-24 02:59N 59°27' E 024°40'0 0.0
2018-Apr-24 02:29N 59°27' E 024°40'0 0.0
2018-Apr-24 01:59N 59°27' E 024°40'0 0.0
2018-Apr-24 01:29N 59°27' E 024°40'0 0.0
2018-Apr-24 01:00N 59°27' E 024°40'0 0.0
2018-Apr-24 00:30N 59°27' E 024°40'0 0.0
2018-Apr-24 00:00N 59°28' E 024°40'0 0.0
2018-Apr-23 23:28N 59°27' E 024°40'0 0.0
2018-Apr-23 22:58N 59°27' E 024°40'0 0.0
2018-Apr-23 22:29N 59°28' E 024°40'0 0.0
2018-Apr-23 21:59N 59°28' E 024°40'0 0.0
2018-Apr-23 21:29N 59°27' E 024°40'0 0.0
2018-Apr-23 21:00N 59°27' E 024°40'0 0.0
2018-Apr-23 20:30N 59°28' E 024°40'0 0.0
2018-Apr-23 20:00N 59°28' E 024°40'0 0.0
2018-Apr-23 19:31N 59°27' E 024°40'0 0.0
2018-Apr-23 18:58N 59°27' E 024°40'0 0.0
2018-Apr-23 18:28N 59°27' E 024°40'0 0.0
2018-Apr-23 17:59N 59°28' E 024°40'0 0.0
2018-Apr-23 17:29N 59°27' E 024°40'0 0.0
2018-Apr-23 16:59N 59°27' E 024°40'0 0.0
2018-Apr-23 16:30N 59°27' E 024°40'0 0.0
2018-Apr-23 16:00N 59°28' E 024°40'0 0.0
2018-Apr-23 15:30N 59°27' E 024°40'0 0.0
2018-Apr-23 15:01N 59°27' E 024°40'0 0.0
2018-Apr-23 14:28N 59°28' E 024°40'0 0.0
2018-Apr-23 13:58N 59°27' E 024°40'0 0.0
2018-Apr-23 13:29N 59°27' E 024°40'0 0.0
2018-Apr-23 12:59N 59°27' E 024°40'0 0.0
2018-Apr-23 12:29N 59°27' E 024°40'0 0.0
2018-Apr-23 12:00N 59°27' E 024°40'0 0.0
2018-Apr-23 11:30N 59°27' E 024°40'0 0.0
2018-Apr-23 11:00N 59°27' E 024°40'0 0.0
2018-Apr-23 10:31N 59°27' E 024°40'0 0.0
2018-Apr-23 09:58N 59°27' E 024°40'0 0.0
2018-Apr-23 09:28N 59°28' E 024°40'0 0.0
2018-Apr-23 08:59N 59°27' E 024°40'0 0.0
2018-Apr-23 08:29N 59°27' E 024°40'0 0.0
2018-Apr-23 07:59N 59°27' E 024°40'0 0.0
2018-Apr-23 07:30N 59°27' E 024°40'0 0.0
2018-Apr-23 07:00N 59°28' E 024°40'0 0.0
2018-Apr-23 06:30N 59°27' E 024°40'0 0.0
2018-Apr-23 05:58N 59°27' E 024°40'0 0.0
2018-Apr-23 05:28N 59°28' E 024°40'0 0.0
2018-Apr-23 04:58N 59°27' E 024°40'0 0.0
2018-Apr-23 04:26N 59°27' E 024°40'0 0.0
2018-Apr-23 03:59N 59°28' E 024°40'0 0.0
2018-Apr-23 03:29N 59°27' E 024°40'0 0.0
2018-Apr-23 03:00N 59°27' E 024°40'0 0.0
2018-Apr-23 02:30N 59°27' E 024°40'0 0.0
2018-Apr-23 02:00N 59°27' E 024°40'0 0.0
2018-Apr-23 01:28N 59°27' E 024°40'0 0.0
2018-Apr-23 00:58N 59°28' E 024°40'0 0.0
2018-Apr-23 00:28N 59°27' E 024°40'0 0.0
2018-Apr-22 23:59N 59°28' E 024°40'0 0.0
2018-Apr-22 23:26N 59°27' E 024°40'0 0.0
2018-Apr-22 22:59N 59°27' E 024°40'0 0.0
2018-Apr-22 22:30N 59°27' E 024°40'0 0.0
2018-Apr-22 22:00N 59°27' E 024°40'0 0.0
2018-Apr-22 21:30N 59°28' E 024°40'0 0.0
2018-Apr-22 20:58N 59°28' E 024°40'0 0.0
2018-Apr-22 20:28N 59°27' E 024°40'0 0.0
2018-Apr-22 19:58N 59°27' E 024°40'0 0.0
2018-Apr-22 19:29N 59°27' E 024°40'0 0.0
2018-Apr-22 18:59N 59°28' E 024°40'0 0.0
2018-Apr-22 18:29N 59°27' E 024°40'0 0.0
2018-Apr-22 18:00N 59°28' E 024°40'0 0.0
2018-Apr-22 17:30N 59°27' E 024°40'0 0.0
2018-Apr-22 17:00N 59°27' E 024°40'0 0.0
2018-Apr-22 16:28N 59°28' E 024°40'0 0.0
2018-Apr-22 15:58N 59°27' E 024°40'0 0.0
2018-Apr-22 15:28N 59°27' E 024°40'0 0.0
2018-Apr-22 14:59N 59°27' E 024°40'0 0.0
2018-Apr-22 14:29N 59°28' E 024°40'0 0.0
2018-Apr-22 13:59N 59°28' E 024°40'0 0.0
2018-Apr-22 13:30N 59°27' E 024°40'0 0.0
2018-Apr-22 13:00N 59°27' E 024°40'0 0.0
2018-Apr-22 12:30N 59°27' E 024°40'0 0.0
2018-Apr-22 11:58N 59°28' E 024°40'0 0.0
2018-Apr-22 11:28N 59°28' E 024°40'0 0.0
2018-Apr-22 10:55N 59°27' E 024°40'0 0.0
2018-Apr-22 10:29N 59°27' E 024°40'0 0.0
2018-Apr-22 09:59N 59°27' E 024°40'0 0.0
2018-Apr-22 09:29N 59°27' E 024°40'0 0.0
2018-Apr-22 09:00N 59°28' E 024°40'0 0.0
2018-Apr-22 08:30N 59°27' E 024°40'0 0.0
2018-Apr-22 08:00N 59°27' E 024°40'0 0.0
2018-Apr-22 07:28N 59°28' E 024°40'0 0.0
2018-Apr-22 06:58N 59°28' E 024°40'0 0.0
2018-Apr-22 06:28N 59°28' E 024°40'0 0.0
2018-Apr-22 05:59N 59°28' E 024°40'0 0.0
2018-Apr-22 05:29N 59°27' E 024°40'0 0.0
2018-Apr-22 04:59N 59°28' E 024°40'0 0.0
2018-Apr-22 04:30N 59°28' E 024°40'0 0.0
2018-Apr-22 04:00N 59°27' E 024°40'0 0.0
2018-Apr-22 03:30N 59°27' E 024°40'0 0.0
2018-Apr-22 02:55N 59°27' E 024°40'0 0.0
2018-Apr-22 02:28N 59°28' E 024°40'0 0.0
2018-Apr-22 01:58N 59°27' E 024°40'0 0.0
2018-Apr-22 01:29N 59°27' E 024°40'0 0.0
2018-Apr-22 00:59N 59°27' E 024°40'0 0.0
2018-Apr-22 00:29N 59°27' E 024°40'0 0.0
2018-Apr-22 00:00N 59°28' E 024°40'0 0.0
2018-Apr-21 23:27N 59°27' E 024°40'0 0.0
2018-Apr-21 23:00N 59°27' E 024°40'0 0.0
2018-Apr-21 22:28N 59°27' E 024°40'0 0.0
2018-Apr-21 21:58N 59°28' E 024°40'0 0.0
2018-Apr-21 21:28N 59°27' E 024°40'0 0.0
2018-Apr-21 20:59N 59°28' E 024°40'0 0.0
2018-Apr-21 20:29N 59°28' E 024°40'0 0.0
2018-Apr-21 19:59N 59°28' E 024°40'0 0.0
2018-Apr-21 19:30N 59°27' E 024°40'0 0.0
2018-Apr-21 19:00N 59°28' E 024°40'0 0.0
2018-Apr-21 18:30N 59°27' E 024°40'0 0.0
2018-Apr-21 17:58N 59°28' E 024°40'0 0.0
2018-Apr-21 17:28N 59°27' E 024°40'0 0.0
2018-Apr-21 16:58N 59°27' E 024°40'0 0.0
2018-Apr-21 16:29N 59°28' E 024°40'0 0.0
2018-Apr-21 15:59N 59°27' E 024°40'0 0.0
2018-Apr-21 15:29N 59°27' E 024°40'0 0.0
2018-Apr-21 15:00N 59°27' E 024°40'0 0.0
2018-Apr-21 14:30N 59°28' E 024°40'0 0.0
2018-Apr-21 14:00N 59°27' E 024°40'0 0.0
2018-Apr-21 13:28N 59°27' E 024°40'0 0.0
2018-Apr-21 12:58N 59°27' E 024°40'0 0.0
2018-Apr-21 12:29N 59°27' E 024°40'0 0.0
2018-Apr-21 11:59N 59°28' E 024°40'0 0.0
2018-Apr-21 11:29N 59°28' E 024°40'0 0.0
2018-Apr-21 11:00N 59°28' E 024°40'0 0.0
2018-Apr-21 10:30N 59°28' E 024°40'0 0.0
2018-Apr-21 10:00N 59°27' E 024°40'0 0.0
2018-Apr-21 09:30N 59°28' E 024°40'0 0.0
2018-Apr-21 08:58N 59°27' E 024°40'0 0.0
2018-Apr-21 08:28N 59°27' E 024°40'0 0.0
2018-Apr-21 07:58N 59°27' E 024°40'0 0.0
2018-Apr-21 07:26N 59°28' E 024°40'0 0.0
2018-Apr-21 06:59N 59°28' E 024°40'0 0.0
2018-Apr-21 06:30N 59°28' E 024°40'0 0.0
2018-Apr-21 06:00N 59°27' E 024°40'0 0.0
2018-Apr-21 05:30N 59°28' E 024°40'0 0.0
2018-Apr-21 05:00N 59°28' E 024°40'0 0.0
2018-Apr-21 04:26N 59°27' E 024°40'0 0.0
2018-Apr-21 03:58N 59°27' E 024°40'0 0.0
2018-Apr-21 03:28N 59°27' E 024°40'0 0.0
2018-Apr-21 02:59N 59°27' E 024°40'0 0.0
2018-Apr-21 02:26N 59°27' E 024°40'0 0.0
2018-Apr-21 01:59N 59°27' E 024°40'0 0.0
2018-Apr-21 01:30N 59°27' E 024°40'0 0.0
2018-Apr-21 01:00N 59°28' E 024°40'0 0.0
2018-Apr-21 00:30N 59°28' E 024°40'0 0.0
2018-Apr-20 23:58N 59°28' E 024°40'0 0.0
2018-Apr-20 23:28N 59°27' E 024°40'0 0.0
2018-Apr-20 22:56N 59°27' E 024°40'0 0.0
2018-Apr-20 22:29N 59°27' E 024°40'0 0.0
2018-Apr-20 21:59N 59°27' E 024°40'0 0.0
2018-Apr-20 21:29N 59°27' E 024°40'0 0.0
2018-Apr-20 21:00N 59°27' E 024°40'0 0.0
2018-Apr-20 20:30N 59°27' E 024°40'0 0.0
2018-Apr-20 20:00N 59°28' E 024°40'0 0.0
2018-Apr-20 19:28N 59°27' E 024°40'0 0.0
2018-Apr-20 18:58N 59°27' E 024°40'0 0.0
2018-Apr-20 18:28N 59°28' E 024°40'0 0.0
2018-Apr-20 17:56N 59°27' E 024°40'0 0.0
2018-Apr-20 17:29N 59°27' E 024°40'0 0.0
2018-Apr-20 16:59N 59°27' E 024°40'0 0.0
2018-Apr-20 16:30N 59°28' E 024°40'0 0.0
2018-Apr-20 16:00N 59°27' E 024°40'0 0.0
2018-Apr-20 15:30N 59°27' E 024°40'0 0.0
2018-Apr-20 14:55N 59°27' E 024°40'0 0.1
2018-Apr-20 14:28N 59°27' E 024°40'0 0.0
2018-Apr-20 13:59N 59°28' E 024°40'0 0.0
2018-Apr-20 13:29N 59°27' E 024°40'0 0.0
2018-Apr-20 12:59N 59°27' E 024°40'0 0.0
2018-Apr-20 12:29N 59°27' E 024°40'0 0.0
2018-Apr-20 12:00N 59°28' E 024°40'0 0.0
2018-Apr-20 11:30N 59°27' E 024°40'0 0.0
2018-Apr-20 11:00N 59°27' E 024°40'0 0.0
2018-Apr-20 10:28N 59°28' E 024°40'0 0.0
2018-Apr-20 09:58N 59°28' E 024°40'0 0.0
2018-Apr-20 09:28N 59°28' E 024°40'0 0.0
2018-Apr-20 08:59N 59°27' E 024°40'0 0.0
2018-Apr-20 08:29N 59°27' E 024°40'0 0.0
2018-Apr-20 07:59N 59°27' E 024°40'0 0.0
2018-Apr-20 07:30N 59°28' E 024°40'0 0.0
2018-Apr-20 07:00N 59°28' E 024°40'0 0.0
2018-Apr-20 06:30N 59°28' E 024°40'0 0.0
2018-Apr-20 05:58N 59°27' E 024°40'0 0.0
2018-Apr-20 05:28N 59°28' E 024°40'0 0.0
2018-Apr-20 04:58N 59°27' E 024°40'0 0.0
2018-Apr-20 04:29N 59°27' E 024°40'0 0.0
2018-Apr-20 03:59N 59°27' E 024°40'0 0.0
2018-Apr-20 03:29N 59°28' E 024°40'0 0.0
2018-Apr-20 03:00N 59°27' E 024°40'0 0.0
2018-Apr-20 02:30N 59°28' E 024°40'0 0.0
2018-Apr-20 02:00N 59°27' E 024°40'0 0.0
2018-Apr-20 01:28N 59°27' E 024°40'0 0.0
2018-Apr-20 01:00N 59°28' E 024°40'0 0.0
2018-Apr-20 00:31N 59°27' E 024°40'0 1.0
2018-Apr-20 00:00N 59°28' E 024°39'0 0.0
2018-Apr-19 23:30N 59°28' E 024°39'0 0.0
2018-Apr-19 23:01N 59°28' E 024°39'0 0.0
2018-Apr-19 22:30N 59°28' E 024°39'0 0.0
2018-Apr-19 22:00N 59°28' E 024°39'0 0.0
2018-Apr-19 21:30N 59°28' E 024°39'0 0.0
2018-Apr-19 21:01N 59°28' E 024°39'0 0.0
2018-Apr-19 20:31N 59°28' E 024°39'0 0.0
2018-Apr-19 20:01N 59°28' E 024°39'0 0.0
2018-Apr-19 19:30N 59°28' E 024°39'0 0.0
2018-Apr-19 19:00N 59°28' E 024°39'0 0.0
2018-Apr-19 18:31N 59°28' E 024°39'0 0.0
2018-Apr-19 18:01N 59°28' E 024°39'0 0.0
2018-Apr-19 17:31N 59°28' E 024°39'0 0.0
2018-Apr-19 17:01N 59°28' E 024°39'0 0.0
2018-Apr-19 16:30N 59°28' E 024°39'0 0.3
2018-Apr-19 16:00N 59°28' E 024°39'3 6.0
2018-Apr-19 15:31N 59°30' E 024°43'3 6.7
2018-Apr-19 15:01N 59°27' E 024°46'0 0.0
2018-Apr-19 14:30N 59°27' E 024°46'0 0.0
2018-Apr-19 14:01N 59°27' E 024°46'0 0.0
2018-Apr-19 13:30N 59°27' E 024°46'0 0.0
2018-Apr-19 13:01N 59°27' E 024°46'0 0.0
2018-Apr-19 12:30N 59°27' E 024°46'0 0.0
2018-Apr-19 12:01N 59°27' E 024°46'0 0.0
2018-Apr-19 11:30N 59°27' E 024°46'0 0.0
2018-Apr-19 11:00N 59°27' E 024°46'0 0.0
2018-Apr-19 10:31N 59°27' E 024°46'0 0.0
2018-Apr-19 10:01N 59°27' E 024°46'0 0.0
2018-Apr-19 09:31N 59°27' E 024°46'0 0.0
2018-Apr-19 09:00N 59°27' E 024°46'0 0.0
2018-Apr-19 08:30N 59°27' E 024°46'0 0.0
2018-Apr-19 08:01N 59°27' E 024°46'0 0.0
2018-Apr-19 07:31N 59°27' E 024°46'0 0.0
2018-Apr-19 07:01N 59°27' E 024°46'0 0.0
2018-Apr-19 06:30N 59°27' E 024°46'0 0.0
2018-Apr-19 06:00N 59°27' E 024°46'0 0.0
2018-Apr-19 05:31N 59°27' E 024°46'0 0.0
2018-Apr-19 05:01N 59°27' E 024°46'0 0.0
2018-Apr-19 04:31N 59°27' E 024°46'0 0.0
2018-Apr-19 04:01N 59°27' E 024°46'0 0.0
2018-Apr-19 03:31N 59°27' E 024°46'0 0.0
2018-Apr-19 03:00N 59°27' E 024°46'0 0.0
2018-Apr-19 02:30N 59°27' E 024°46'0 0.0
2018-Apr-19 02:00N 59°27' E 024°46'0 0.0
2018-Apr-19 01:30N 59°27' E 024°46'0 0.0
2018-Apr-19 01:00N 59°27' E 024°46'0 0.0
2018-Apr-19 00:30N 59°27' E 024°46'0 0.0
2018-Apr-19 00:00N 59°27' E 024°46'0 0.0
2018-Apr-18 23:31N 59°27' E 024°46'0 0.0
2018-Apr-18 23:00N 59°27' E 024°46'0 0.0
2018-Apr-18 22:31N 59°27' E 024°46'0 0.0
2018-Apr-18 22:00N 59°27' E 024°46'0 0.0
2018-Apr-18 21:31N 59°27' E 024°46'0 0.0
2018-Apr-18 21:01N 59°27' E 024°46'0 0.0
2018-Apr-18 20:30N 59°27' E 024°46'0 0.0
2018-Apr-18 20:01N 59°27' E 024°46'0 0.0
2018-Apr-18 19:31N 59°27' E 024°46'0 0.0
2018-Apr-18 19:01N 59°27' E 024°46'0 0.0
2018-Apr-18 18:30N 59°27' E 024°46'0 0.0
2018-Apr-18 18:00N 59°27' E 024°46'1 1.8
2018-Apr-18 17:31N 59°28' E 024°46'4 8.3
2018-Apr-18 17:00N 59°30' E 024°39'2 4.3
2018-Apr-18 16:30N 59°27' E 024°39'0 0.3
2018-Apr-18 16:01N 59°28' E 024°39'2 3.1
2018-Apr-18 15:30N 59°29' E 024°38'510.7
2018-Apr-18 15:00N 59°34' E 024°40'5 9.1
2018-Apr-18 14:30N 59°38' E 024°45'510.4
2018-Apr-18 14:01N 59°34' E 024°52'5 9.6
2018-Apr-18 13:31N 59°30' E 024°57'1 1.5
2018-Apr-18 13:01N 59°30' E 024°56'0 0.0
2018-Apr-18 12:31N 59°30' E 024°56'0 0.0
2018-Apr-18 12:01N 59°30' E 024°56'0 0.0
2018-Apr-18 11:30N 59°30' E 024°56'0 0.0
2018-Apr-18 11:00N 59°30' E 024°56'0 0.0
2018-Apr-18 10:30N 59°30' E 024°56'0 0.0
2018-Apr-18 10:00N 59°30' E 024°56'0 0.0
2018-Apr-18 09:30N 59°30' E 024°56'0 0.0
2018-Apr-18 09:00N 59°30' E 024°56'0 0.0
2018-Apr-18 08:30N 59°30' E 024°56'0 0.0
2018-Apr-18 08:00N 59°30' E 024°56'0 0.0
2018-Apr-18 07:31N 59°30' E 024°56'0 0.0
2018-Apr-18 07:00N 59°30' E 024°56'0 0.0
2018-Apr-18 06:30N 59°30' E 024°56'0 0.0
2018-Apr-18 06:00N 59°30' E 024°56'0 0.0
2018-Apr-18 05:30N 59°30' E 024°56'0 0.0
2018-Apr-18 05:00N 59°30' E 024°56'0 0.0
2018-Apr-18 04:31N 59°30' E 024°56'0 0.0
2018-Apr-18 04:00N 59°30' E 024°56'0 0.0
2018-Apr-18 03:31N 59°30' E 024°56'0 0.0
2018-Apr-18 03:00N 59°30' E 024°56'0 0.0
2018-Apr-18 02:30N 59°30' E 024°56'0 0.0
2018-Apr-18 02:00N 59°30' E 024°56'0 0.0
2018-Apr-18 01:30N 59°30' E 024°56'0 0.0
2018-Apr-18 01:00N 59°30' E 024°56'0 0.0
2018-Apr-18 00:31N 59°30' E 024°56'0 0.0
2018-Apr-18 00:01N 59°30' E 024°56'0 0.0
2018-Apr-17 23:30N 59°30' E 024°56'0 0.0
2018-Apr-17 23:00N 59°30' E 024°56'0 0.0
2018-Apr-17 22:30N 59°30' E 024°56'1 1.4
2018-Apr-17 22:01N 59°30' E 024°58'1 1.3
2018-Apr-17 21:30N 59°30' E 024°56'0 0.0
2018-Apr-17 21:00N 59°30' E 024°56'0 0.0
2018-Apr-17 20:30N 59°30' E 024°56'0 0.0
2018-Apr-17 20:00N 59°30' E 024°56'4 7.8
2018-Apr-17 19:31N 59°33' E 024°54'510.5
2018-Apr-17 19:01N 59°37' E 024°46'3 6.9
2018-Apr-17 18:30N 59°34' E 024°42'510.6
2018-Apr-17 18:00N 59°29' E 024°38'2 3.2
2018-Apr-17 17:31N 59°28' E 024°39'0 0.6
2018-Apr-17 17:01N 59°28' E 024°39'0 0.0
2018-Apr-17 16:31N 59°28' E 024°39'0 0.0
2018-Apr-17 16:01N 59°28' E 024°39'0 0.0
2018-Apr-17 15:30N 59°28' E 024°39'0 0.0
2018-Apr-17 14:59N 59°28' E 024°39'0 0.0
2018-Apr-17 14:31N 59°28' E 024°39'0 0.0
2018-Apr-17 14:00N 59°28' E 024°39'0 0.0
2018-Apr-17 13:30N 59°28' E 024°39'0 0.7
2018-Apr-17 13:00N 59°28' E 024°39'2 4.5
2018-Apr-17 12:30N 59°30' E 024°38'510.7
2018-Apr-17 12:01N 59°35' E 024°42'3 6.2
2018-Apr-17 11:31N 59°36' E 024°47'510.6
2018-Apr-17 11:00N 59°33' E 024°55'3 6.4
2018-Apr-17 10:30N 59°30' E 024°57'0 0.9
2018-Apr-17 10:01N 59°30' E 024°56'0 0.0
2018-Apr-17 09:30N 59°30' E 024°56'0 0.0
2018-Apr-17 08:59N 59°30' E 024°56'0 0.0
2018-Apr-17 08:31N 59°30' E 024°56'0 0.0
2018-Apr-17 08:01N 59°30' E 024°56'0 0.0
2018-Apr-17 07:31N 59°30' E 024°56'0 0.0
2018-Apr-17 07:01N 59°30' E 024°56'0 0.0
2018-Apr-17 06:31N 59°30' E 024°56'0 0.0
2018-Apr-17 06:01N 59°30' E 024°56'0 0.0
2018-Apr-17 05:30N 59°30' E 024°56'0 0.0
2018-Apr-17 05:00N 59°30' E 024°56'0 0.0
2018-Apr-17 04:30N 59°30' E 024°56'0 0.0
2018-Apr-17 04:00N 59°30' E 024°56'0 0.0
2018-Apr-17 03:31N 59°30' E 024°56'0 0.0
2018-Apr-17 03:01N 59°30' E 024°56'0 0.0
2018-Apr-17 02:30N 59°30' E 024°56'0 0.0
2018-Apr-17 02:00N 59°30' E 024°56'0 0.0
2018-Apr-17 01:30N 59°30' E 024°56'0 0.0
2018-Apr-17 01:00N 59°30' E 024°56'0 0.0
2018-Apr-17 00:30N 59°30' E 024°56'0 0.0
2018-Apr-17 00:01N 59°30' E 024°56'0 0.0
2018-Apr-16 23:30N 59°30' E 024°56'0 0.0
2018-Apr-16 23:00N 59°30' E 024°56'0 0.0
2018-Apr-16 22:30N 59°30' E 024°56'0 0.0
2018-Apr-16 22:00N 59°30' E 024°56'0 0.0
2018-Apr-16 21:30N 59°30' E 024°56'0 0.0
2018-Apr-16 21:00N 59°30' E 024°56'0 0.0
2018-Apr-16 20:30N 59°30' E 024°56'0 0.0
2018-Apr-16 20:00N 59°30' E 024°56'0 0.0
2018-Apr-16 19:30N 59°30' E 024°56'0 0.0
2018-Apr-16 19:00N 59°30' E 024°56'0 0.0
2018-Apr-16 18:31N 59°30' E 024°56'0 0.0
2018-Apr-16 18:00N 59°30' E 024°56'0 0.0
2018-Apr-16 17:31N 59°30' E 024°56'0 0.0
2018-Apr-16 17:00N 59°30' E 024°56'0 0.0
2018-Apr-16 16:30N 59°30' E 024°56'0 0.0
2018-Apr-16 16:00N 59°30' E 024°56'0 0.0
2018-Apr-16 15:31N 59°30' E 024°56'0 0.0
2018-Apr-16 15:01N 59°30' E 024°56'0 0.0
2018-Apr-16 14:30N 59°30' E 024°56'0 0.0
2018-Apr-16 14:00N 59°30' E 024°56'0 0.0
2018-Apr-16 13:30N 59°30' E 024°56'0 0.0
2018-Apr-16 13:00N 59°30' E 024°56'0 0.0
2018-Apr-16 12:30N 59°30' E 024°56'0 0.0
2018-Apr-16 12:00N 59°30' E 024°56'0 0.0
2018-Apr-16 11:30N 59°30' E 024°56'0 0.0
2018-Apr-16 11:01N 59°30' E 024°56'0 0.0
2018-Apr-16 10:31N 59°30' E 024°56'0 0.0
2018-Apr-16 10:00N 59°30' E 024°56'0 0.0
2018-Apr-16 09:30N 59°30' E 024°56'0 0.0
2018-Apr-16 09:01N 59°30' E 024°56'0 0.0
2018-Apr-16 08:30N 59°30' E 024°56'0 0.0
2018-Apr-16 08:01N 59°30' E 024°56'0 0.0
2018-Apr-16 07:30N 59°30' E 024°56'  
Track history (hours):
 
Tides and Currents Weather Stations Pressure Air Temp Water Temp Dewpoint Dewpoint Depression Visibility Wind Speed Wind Dir Waves Ship Positions

H.kanter

Last reported at 2018-Apr-26 07:30 UTC. Time now 2018-Apr-26 07:55 UTC.
Position N 59°30' E 024°56'.

Length 30 m; draft 4.8 m.

Type: Tug. MMSI: 276504000.

Date/timePositionNaut miles runAvg speedWind from/ knotsBaromVisibWave heightAir tempDewpointWater temp
2018-Apr-26 07:30N 59°30' E 024°56'0 0.0
2018-Apr-26 07:00N 59°30' E 024°56'0 0.0
2018-Apr-26 06:30N 59°30' E 024°56'0 0.0
2018-Apr-26 06:00N 59°30' E 024°56'0 0.0
2018-Apr-26 05:30N 59°30' E 024°56'0 0.0
2018-Apr-26 05:00N 59°30' E 024°56'0 0.0
2018-Apr-26 04:30N 59°30' E 024°56'0 0.0
2018-Apr-26 04:00N 59°30' E 024°56'0 0.0
2018-Apr-26 03:30N 59°30' E 024°56'0 0.0
2018-Apr-26 03:01N 59°30' E 024°56'0 0.0
2018-Apr-26 02:30N 59°30' E 024°56'0 0.0
2018-Apr-26 02:00N 59°30' E 024°56'0 0.0
2018-Apr-26 01:30N 59°30' E 024°56'0 0.0
2018-Apr-26 01:00N 59°30' E 024°56'0 0.0
2018-Apr-26 00:30N 59°30' E 024°56'0 0.0
2018-Apr-26 00:01N 59°30' E 024°56'0 0.0
2018-Apr-25 23:29N 59°30' E 024°56'0 0.0
2018-Apr-25 23:00N 59°30' E 024°56'0 0.0
2018-Apr-25 22:30N 59°30' E 024°56'0 0.0
2018-Apr-25 22:00N 59°30' E 024°56'0 0.0
2018-Apr-25 21:30N 59°30' E 024°56'0 0.0
2018-Apr-25 21:01N 59°30' E 024°56'0 0.0
2018-Apr-25 20:30N 59°30' E 024°56'0 0.0
2018-Apr-25 20:00N 59°30' E 024°56'0 0.0
2018-Apr-25 19:30N 59°30' E 024°56'0 0.0
2018-Apr-25 19:01N 59°30' E 024°56'0 0.0
2018-Apr-25 18:30N 59°30' E 024°56'0 0.0
2018-Apr-25 18:00N 59°30' E 024°56'0 0.0
2018-Apr-25 17:31N 59°30' E 024°56'0 0.0
2018-Apr-25 17:00N 59°30' E 024°56'0 0.0
2018-Apr-25 16:30N 59°30' E 024°56'0 0.0
2018-Apr-25 16:00N 59°30' E 024°56'0 0.0
2018-Apr-25 15:30N 59°30' E 024°56'0 0.0
2018-Apr-25 15:01N 59°30' E 024°56'0 0.0
2018-Apr-25 14:30N 59°30' E 024°56'0 0.0
2018-Apr-25 14:00N 59°30' E 024°56'0 0.0
2018-Apr-25 13:31N 59°30' E 024°56'0 0.0
2018-Apr-25 13:01N 59°30' E 024°56'0 0.0
2018-Apr-25 12:31N 59°30' E 024°56'0 0.0
2018-Apr-25 12:00N 59°30' E 024°56'0 0.0
2018-Apr-25 11:30N 59°30' E 024°56'0 0.0
2018-Apr-25 11:00N 59°30' E 024°56'0 0.0
2018-Apr-25 10:31N 59°30' E 024°56'0 0.0
2018-Apr-25 10:01N 59°30' E 024°56'0 0.0
2018-Apr-25 09:31N 59°30' E 024°56'0 0.0
2018-Apr-25 09:00N 59°30' E 024°56'1 1.8
2018-Apr-25 08:30N 59°29' E 024°58'1 3.0
2018-Apr-25 08:00N 59°31' E 024°58'1 2.5
2018-Apr-25 07:29N 59°30' E 024°56'0 0.0
2018-Apr-25 07:00N 59°30' E 024°56'0 0.0
2018-Apr-25 06:31N 59°30' E 024°56'0 0.0
2018-Apr-25 06:00N 59°30' E 024°56'0 0.0
2018-Apr-25 05:30N 59°30' E 024°56'0 0.0
2018-Apr-25 05:00N 59°30' E 024°56'0 0.0
2018-Apr-25 04:30N 59°30' E 024°56'0 0.0
2018-Apr-25 04:01N 59°30' E 024°56'0 0.0
2018-Apr-25 03:30N 59°30' E 024°56'0 0.0
2018-Apr-25 03:00N 59°30' E 024°56'0 0.0
2018-Apr-25 02:31N 59°30' E 024°56'0 0.0
2018-Apr-25 02:01N 59°30' E 024°56'0 0.0
2018-Apr-25 01:30N 59°30' E 024°56'0 0.0
2018-Apr-25 01:00N 59°30' E 024°56'1 1.0
2018-Apr-25 00:31N 59°30' E 024°57'1 1.5
2018-Apr-25 00:01N 59°30' E 024°57'1 1.6
2018-Apr-24 23:30N 59°30' E 024°56'0 0.0
2018-Apr-24 23:00N 59°30' E 024°56'0 0.0
2018-Apr-24 22:30N 59°30' E 024°56'0 0.0
2018-Apr-24 22:00N 59°30' E 024°56'0 0.0
2018-Apr-24 21:30N 59°30' E 024°56'0 0.0
2018-Apr-24 21:01N 59°30' E 024°56'0 0.0
2018-Apr-24 20:30N 59°30' E 024°56'0 0.0
2018-Apr-24 19:59N 59°30' E 024°56'0 0.0
2018-Apr-24 19:30N 59°30' E 024°56'3 6.3
2018-Apr-24 19:00N 59°33' E 024°55'510.9
2018-Apr-24 18:31N 59°37' E 024°47'3 6.1
2018-Apr-24 18:00N 59°35' E 024°42'5 9.4
2018-Apr-24 17:31N 59°30' E 024°40'3 5.1
2018-Apr-24 16:58N 59°27' E 024°40'0 0.0
2018-Apr-24 16:28N 59°28' E 024°40'0 0.0
2018-Apr-24 15:59N 59°28' E 024°40'0 0.0
2018-Apr-24 15:29N 59°28' E 024°40'0 0.0
2018-Apr-24 15:00N 59°27' E 024°40'0 0.0
2018-Apr-24 14:30N 59°27' E 024°40'0 0.0
2018-Apr-24 14:00N 59°27' E 024°40'0 0.0
2018-Apr-24 13:30N 59°28' E 024°40'0 0.0
2018-Apr-24 12:58N 59°27' E 024°40'0 0.0
2018-Apr-24 12:28N 59°27' E 024°40'0 0.0
2018-Apr-24 11:58N 59°27' E 024°40'0 0.0
2018-Apr-24 11:29N 59°28' E 024°40'0 0.0
2018-Apr-24 10:59N 59°27' E 024°40'0 0.0
2018-Apr-24 10:29N 59°28' E 024°40'0 0.0
2018-Apr-24 10:00N 59°28' E 024°40'0 0.0
2018-Apr-24 09:30N 59°27' E 024°40'0 0.0
2018-Apr-24 09:00N 59°28' E 024°40'0 0.0
2018-Apr-24 08:28N 59°28' E 024°40'0 0.0
2018-Apr-24 07:58N 59°27' E 024°40'0 0.0
2018-Apr-24 07:29N 59°27' E 024°40'0 0.0
2018-Apr-24 06:59N 59°28' E 024°40'0 0.0
2018-Apr-24 06:29N 59°27' E 024°40'0 0.0
2018-Apr-24 05:59N 59°27' E 024°40'0 0.0
2018-Apr-24 05:30N 59°28' E 024°40'0 0.0
2018-Apr-24 04:57N 59°28' E 024°40'0 0.0
2018-Apr-24 04:30N 59°27' E 024°40'0 0.0
2018-Apr-24 03:58N 59°27' E 024°40'0 0.0
2018-Apr-24 03:28N 59°27' E 024°40'0 0.0
2018-Apr-24 02:59N 59°27' E 024°40'0 0.0
2018-Apr-24 02:29N 59°27' E 024°40'0 0.0
2018-Apr-24 01:59N 59°27' E 024°40'0 0.0
2018-Apr-24 01:29N 59°27' E 024°40'0 0.0
2018-Apr-24 01:00N 59°27' E 024°40'0 0.0
2018-Apr-24 00:30N 59°27' E 024°40'0 0.0
2018-Apr-24 00:00N 59°28' E 024°40'0 0.0
2018-Apr-23 23:28N 59°27' E 024°40'0 0.0
2018-Apr-23 22:58N 59°27' E 024°40'0 0.0
2018-Apr-23 22:29N 59°28' E 024°40'0 0.0
2018-Apr-23 21:59N 59°28' E 024°40'0 0.0
2018-Apr-23 21:29N 59°27' E 024°40'0 0.0
2018-Apr-23 21:00N 59°27' E 024°40'0 0.0
2018-Apr-23 20:30N 59°28' E 024°40'0 0.0
2018-Apr-23 20:00N 59°28' E 024°40'0 0.0
2018-Apr-23 19:31N 59°27' E 024°40'0 0.0
2018-Apr-23 18:58N 59°27' E 024°40'0 0.0
2018-Apr-23 18:28N 59°27' E 024°40'0 0.0
2018-Apr-23 17:59N 59°28' E 024°40'0 0.0
2018-Apr-23 17:29N 59°27' E 024°40'0 0.0
2018-Apr-23 16:59N 59°27' E 024°40'0 0.0
2018-Apr-23 16:30N 59°27' E 024°40'0 0.0
2018-Apr-23 16:00N 59°28' E 024°40'0 0.0
2018-Apr-23 15:30N 59°27' E 024°40'0 0.0
2018-Apr-23 15:01N 59°27' E 024°40'0 0.0
2018-Apr-23 14:28N 59°28' E 024°40'0 0.0
2018-Apr-23 13:58N 59°27' E 024°40'0 0.0
2018-Apr-23 13:29N 59°27' E 024°40'0 0.0
2018-Apr-23 12:59N 59°27' E 024°40'0 0.0
2018-Apr-23 12:29N 59°27' E 024°40'0 0.0
2018-Apr-23 12:00N 59°27' E 024°40'0 0.0
2018-Apr-23 11:30N 59°27' E 024°40'0 0.0
2018-Apr-23 11:00N 59°27' E 024°40'0 0.0
2018-Apr-23 10:31N 59°27' E 024°40'0 0.0
2018-Apr-23 09:58N 59°27' E 024°40'0 0.0
2018-Apr-23 09:28N 59°28' E 024°40'0 0.0
2018-Apr-23 08:59N 59°27' E 024°40'0 0.0
2018-Apr-23 08:29N 59°27' E 024°40'0 0.0
2018-Apr-23 07:59N 59°27' E 024°40'0 0.0
2018-Apr-23 07:30N 59°27' E 024°40'0 0.0
2018-Apr-23 07:00N 59°28' E 024°40'0 0.0
2018-Apr-23 06:30N 59°27' E 024°40'0 0.0
2018-Apr-23 05:58N 59°27' E 024°40'0 0.0
2018-Apr-23 05:28N 59°28' E 024°40'0 0.0
2018-Apr-23 04:58N 59°27' E 024°40'0 0.0
2018-Apr-23 04:26N 59°27' E 024°40'0 0.0
2018-Apr-23 03:59N 59°28' E 024°40'0 0.0
2018-Apr-23 03:29N 59°27' E 024°40'0 0.0
2018-Apr-23 03:00N 59°27' E 024°40'0 0.0
2018-Apr-23 02:30N 59°27' E 024°40'0 0.0
2018-Apr-23 02:00N 59°27' E 024°40'0 0.0
2018-Apr-23 01:28N 59°27' E 024°40'0 0.0
2018-Apr-23 00:58N 59°28' E 024°40'0 0.0
2018-Apr-23 00:28N 59°27' E 024°40'0 0.0
2018-Apr-22 23:59N 59°28' E 024°40'0 0.0
2018-Apr-22 23:26N 59°27' E 024°40'0 0.0
2018-Apr-22 22:59N 59°27' E 024°40'0 0.0
2018-Apr-22 22:30N 59°27' E 024°40'0 0.0
2018-Apr-22 22:00N 59°27' E 024°40'0 0.0
2018-Apr-22 21:30N 59°28' E 024°40'0 0.0
2018-Apr-22 20:58N 59°28' E 024°40'0 0.0
2018-Apr-22 20:28N 59°27' E 024°40'0 0.0
2018-Apr-22 19:58N 59°27' E 024°40'0 0.0
2018-Apr-22 19:29N 59°27' E 024°40'0 0.0
2018-Apr-22 18:59N 59°28' E 024°40'0 0.0
2018-Apr-22 18:29N 59°27' E 024°40'0 0.0
2018-Apr-22 18:00N 59°28' E 024°40'0 0.0
2018-Apr-22 17:30N 59°27' E 024°40'0 0.0
2018-Apr-22 17:00N 59°27' E 024°40'0 0.0
2018-Apr-22 16:28N 59°28' E 024°40'0 0.0
2018-Apr-22 15:58N 59°27' E 024°40'0 0.0
2018-Apr-22 15:28N 59°27' E 024°40'0 0.0
2018-Apr-22 14:59N 59°27' E 024°40'0 0.0
2018-Apr-22 14:29N 59°28' E 024°40'0 0.0
2018-Apr-22 13:59N 59°28' E 024°40'0 0.0
2018-Apr-22 13:30N 59°27' E 024°40'0 0.0
2018-Apr-22 13:00N 59°27' E 024°40'0 0.0
2018-Apr-22 12:30N 59°27' E 024°40'0 0.0
2018-Apr-22 11:58N 59°28' E 024°40'0 0.0
2018-Apr-22 11:28N 59°28' E 024°40'0 0.0
2018-Apr-22 10:55N 59°27' E 024°40'0 0.0
2018-Apr-22 10:29N 59°27' E 024°40'0 0.0
2018-Apr-22 09:59N 59°27' E 024°40'0 0.0
2018-Apr-22 09:29N 59°27' E 024°40'0 0.0
2018-Apr-22 09:00N 59°28' E 024°40'0 0.0
2018-Apr-22 08:30N 59°27' E 024°40'0 0.0
2018-Apr-22 08:00N 59°27' E 024°40'0 0.0
2018-Apr-22 07:28N 59°28' E 024°40'0 0.0
2018-Apr-22 06:58N 59°28' E 024°40'0 0.0
2018-Apr-22 06:28N 59°28' E 024°40'0 0.0
2018-Apr-22 05:59N 59°28' E 024°40'0 0.0
2018-Apr-22 05:29N 59°27' E 024°40'0 0.0
2018-Apr-22 04:59N 59°28' E 024°40'0 0.0
2018-Apr-22 04:30N 59°28' E 024°40'0 0.0
2018-Apr-22 04:00N 59°27' E 024°40'0 0.0
2018-Apr-22 03:30N 59°27' E 024°40'0 0.0
2018-Apr-22 02:55N 59°27' E 024°40'0 0.0
2018-Apr-22 02:28N 59°28' E 024°40'0 0.0
2018-Apr-22 01:58N 59°27' E 024°40'0 0.0
2018-Apr-22 01:29N 59°27' E 024°40'0 0.0
2018-Apr-22 00:59N 59°27' E 024°40'0 0.0
2018-Apr-22 00:29N 59°27' E 024°40'0 0.0
2018-Apr-22 00:00N 59°28' E 024°40'0 0.0
2018-Apr-21 23:27N 59°27' E 024°40'0 0.0
2018-Apr-21 23:00N 59°27' E 024°40'0 0.0
2018-Apr-21 22:28N 59°27' E 024°40'0 0.0
2018-Apr-21 21:58N 59°28' E 024°40'0 0.0
2018-Apr-21 21:28N 59°27' E 024°40'0 0.0
2018-Apr-21 20:59N 59°28' E 024°40'0 0.0
2018-Apr-21 20:29N 59°28' E 024°40'0 0.0
2018-Apr-21 19:59N 59°28' E 024°40'0 0.0
2018-Apr-21 19:30N 59°27' E 024°40'0 0.0
2018-Apr-21 19:00N 59°28' E 024°40'0 0.0
2018-Apr-21 18:30N 59°27' E 024°40'0 0.0
2018-Apr-21 17:58N 59°28' E 024°40'0 0.0
2018-Apr-21 17:28N 59°27' E 024°40'0 0.0
2018-Apr-21 16:58N 59°27' E 024°40'0 0.0
2018-Apr-21 16:29N 59°28' E 024°40'0 0.0
2018-Apr-21 15:59N 59°27' E 024°40'0 0.0
2018-Apr-21 15:29N 59°27' E 024°40'0 0.0
2018-Apr-21 15:00N 59°27' E 024°40'0 0.0
2018-Apr-21 14:30N 59°28' E 024°40'0 0.0
2018-Apr-21 14:00N 59°27' E 024°40'0 0.0
2018-Apr-21 13:28N 59°27' E 024°40'0 0.0
2018-Apr-21 12:58N 59°27' E 024°40'0 0.0
2018-Apr-21 12:29N 59°27' E 024°40'0 0.0
2018-Apr-21 11:59N 59°28' E 024°40'0 0.0
2018-Apr-21 11:29N 59°28' E 024°40'0 0.0
2018-Apr-21 11:00N 59°28' E 024°40'0 0.0
2018-Apr-21 10:30N 59°28' E 024°40'0 0.0
2018-Apr-21 10:00N 59°27' E 024°40'0 0.0
2018-Apr-21 09:30N 59°28' E 024°40'0 0.0
2018-Apr-21 08:58N 59°27' E 024°40'0 0.0
2018-Apr-21 08:28N 59°27' E 024°40'0 0.0
2018-Apr-21 07:58N 59°27' E 024°40'0 0.0
2018-Apr-21 07:26N 59°28' E 024°40'0 0.0
2018-Apr-21 06:59N 59°28' E 024°40'0 0.0
2018-Apr-21 06:30N 59°28' E 024°40'0 0.0
2018-Apr-21 06:00N 59°27' E 024°40'0 0.0
2018-Apr-21 05:30N 59°28' E 024°40'0 0.0
2018-Apr-21 05:00N 59°28' E 024°40'0 0.0
2018-Apr-21 04:26N 59°27' E 024°40'0 0.0
2018-Apr-21 03:58N 59°27' E 024°40'0 0.0
2018-Apr-21 03:28N 59°27' E 024°40'0 0.0
2018-Apr-21 02:59N 59°27' E 024°40'0 0.0
2018-Apr-21 02:26N 59°27' E 024°40'0 0.0
2018-Apr-21 01:59N 59°27' E 024°40'0 0.0
2018-Apr-21 01:30N 59°27' E 024°40'0 0.0
2018-Apr-21 01:00N 59°28' E 024°40'0 0.0
2018-Apr-21 00:30N 59°28' E 024°40'0 0.0
2018-Apr-20 23:58N 59°28' E 024°40'0 0.0
2018-Apr-20 23:28N 59°27' E 024°40'0 0.0
2018-Apr-20 22:56N 59°27' E 024°40'0 0.0
2018-Apr-20 22:29N 59°27' E 024°40'0 0.0
2018-Apr-20 21:59N 59°27' E 024°40'0 0.0
2018-Apr-20 21:29N 59°27' E 024°40'0 0.0
2018-Apr-20 21:00N 59°27' E 024°40'0 0.0
2018-Apr-20 20:30N 59°27' E 024°40'0 0.0
2018-Apr-20 20:00N 59°28' E 024°40'0 0.0
2018-Apr-20 19:28N 59°27' E 024°40'0 0.0
2018-Apr-20 18:58N 59°27' E 024°40'0 0.0
2018-Apr-20 18:28N 59°28' E 024°40'0 0.0
2018-Apr-20 17:56N 59°27' E 024°40'0 0.0
2018-Apr-20 17:29N 59°27' E 024°40'0 0.0
2018-Apr-20 16:59N 59°27' E 024°40'0 0.0
2018-Apr-20 16:30N 59°28' E 024°40'0 0.0
2018-Apr-20 16:00N 59°27' E 024°40'0 0.0
2018-Apr-20 15:30N 59°27' E 024°40'0 0.0
2018-Apr-20 14:55N 59°27' E 024°40'0 0.1
2018-Apr-20 14:28N 59°27' E 024°40'0 0.0
2018-Apr-20 13:59N 59°28' E 024°40'0 0.0
2018-Apr-20 13:29N 59°27' E 024°40'0 0.0
2018-Apr-20 12:59N 59°27' E 024°40'0 0.0
2018-Apr-20 12:29N 59°27' E 024°40'0 0.0
2018-Apr-20 12:00N 59°28' E 024°40'0 0.0
2018-Apr-20 11:30N 59°27' E 024°40'0 0.0
2018-Apr-20 11:00N 59°27' E 024°40'0 0.0
2018-Apr-20 10:28N 59°28' E 024°40'0 0.0
2018-Apr-20 09:58N 59°28' E 024°40'0 0.0
2018-Apr-20 09:28N 59°28' E 024°40'0 0.0
2018-Apr-20 08:59N 59°27' E 024°40'0 0.0
2018-Apr-20 08:29N 59°27' E 024°40'0 0.0
2018-Apr-20 07:59N 59°27' E 024°40'0 0.0
2018-Apr-20 07:30N 59°28' E 024°40'0 0.0
2018-Apr-20 07:00N 59°28' E 024°40'0 0.0
2018-Apr-20 06:30N 59°28' E 024°40'0 0.0
2018-Apr-20 05:58N 59°27' E 024°40'0 0.0
2018-Apr-20 05:28N 59°28' E 024°40'0 0.0
2018-Apr-20 04:58N 59°27' E 024°40'0 0.0
2018-Apr-20 04:29N 59°27' E 024°40'0 0.0
2018-Apr-20 03:59N 59°27' E 024°40'0 0.0
2018-Apr-20 03:29N 59°28' E 024°40'0 0.0
2018-Apr-20 03:00N 59°27' E 024°40'0 0.0
2018-Apr-20 02:30N 59°28' E 024°40'0 0.0
2018-Apr-20 02:00N 59°27' E 024°40'0 0.0
2018-Apr-20 01:28N 59°27' E 024°40'0 0.0
2018-Apr-20 01:00N 59°28' E 024°40'0 0.0
2018-Apr-20 00:31N 59°27' E 024°40'0 1.0
2018-Apr-20 00:00N 59°28' E 024°39'0 0.0
2018-Apr-19 23:30N 59°28' E 024°39'0 0.0
2018-Apr-19 23:01N 59°28' E 024°39'0 0.0
2018-Apr-19 22:30N 59°28' E 024°39'0 0.0
2018-Apr-19 22:00N 59°28' E 024°39'0 0.0
2018-Apr-19 21:30N 59°28' E 024°39'0 0.0
2018-Apr-19 21:01N 59°28' E 024°39'0 0.0
2018-Apr-19 20:31N 59°28' E 024°39'0 0.0
2018-Apr-19 20:01N 59°28' E 024°39'0 0.0
2018-Apr-19 19:30N 59°28' E 024°39'0 0.0
2018-Apr-19 19:00N 59°28' E 024°39'0 0.0
2018-Apr-19 18:31N 59°28' E 024°39'0 0.0
2018-Apr-19 18:01N 59°28' E 024°39'0 0.0
2018-Apr-19 17:31N 59°28' E 024°39'0 0.0
2018-Apr-19 17:01N 59°28' E 024°39'0 0.0
2018-Apr-19 16:30N 59°28' E 024°39'0 0.3
2018-Apr-19 16:00N 59°28' E 024°39'3 6.0
2018-Apr-19 15:31N 59°30' E 024°43'3 6.7
2018-Apr-19 15:01N 59°27' E 024°46'0 0.0
2018-Apr-19 14:30N 59°27' E 024°46'0 0.0
2018-Apr-19 14:01N 59°27' E 024°46'0 0.0
2018-Apr-19 13:30N 59°27' E 024°46'0 0.0
2018-Apr-19 13:01N 59°27' E 024°46'0 0.0
2018-Apr-19 12:30N 59°27' E 024°46'0 0.0
2018-Apr-19 12:01N 59°27' E 024°46'0 0.0
2018-Apr-19 11:30N 59°27' E 024°46'0 0.0
2018-Apr-19 11:00N 59°27' E 024°46'0 0.0
2018-Apr-19 10:31N 59°27' E 024°46'0 0.0
2018-Apr-19 10:01N 59°27' E 024°46'0 0.0
2018-Apr-19 09:31N 59°27' E 024°46'0 0.0
2018-Apr-19 09:00N 59°27' E 024°46'0 0.0
2018-Apr-19 08:30N 59°27' E 024°46'0 0.0
2018-Apr-19 08:01N 59°27' E 024°46'0 0.0
2018-Apr-19 07:31N 59°27' E 024°46'0 0.0
2018-Apr-19 07:01N 59°27' E 024°46'0 0.0
2018-Apr-19 06:30N 59°27' E 024°46'0 0.0
2018-Apr-19 06:00N 59°27' E 024°46'0 0.0
2018-Apr-19 05:31N 59°27' E 024°46'0 0.0
2018-Apr-19 05:01N 59°27' E 024°46'0 0.0
2018-Apr-19 04:31N 59°27' E 024°46'0 0.0
2018-Apr-19 04:01N 59°27' E 024°46'0 0.0
2018-Apr-19 03:31N 59°27' E 024°46'0 0.0
2018-Apr-19 03:00N 59°27' E 024°46'0 0.0
2018-Apr-19 02:30N 59°27' E 024°46'0 0.0
2018-Apr-19 02:00N 59°27' E 024°46'0 0.0
2018-Apr-19 01:30N 59°27' E 024°46'0 0.0
2018-Apr-19 01:00N 59°27' E 024°46'0 0.0
2018-Apr-19 00:30N 59°27' E 024°46'0 0.0
2018-Apr-19 00:00N 59°27' E 024°46'0 0.0
2018-Apr-18 23:31N 59°27' E 024°46'0 0.0
2018-Apr-18 23:00N 59°27' E 024°46'0 0.0
2018-Apr-18 22:31N 59°27' E 024°46'0 0.0
2018-Apr-18 22:00N 59°27' E 024°46'0 0.0
2018-Apr-18 21:31N 59°27' E 024°46'0 0.0
2018-Apr-18 21:01N 59°27' E 024°46'0 0.0
2018-Apr-18 20:30N 59°27' E 024°46'0 0.0
2018-Apr-18 20:01N 59°27' E 024°46'0 0.0
2018-Apr-18 19:31N 59°27' E 024°46'0 0.0
2018-Apr-18 19:01N 59°27' E 024°46'0 0.0
2018-Apr-18 18:30N 59°27' E 024°46'0 0.0
2018-Apr-18 18:00N 59°27' E 024°46'1 1.8
2018-Apr-18 17:31N 59°28' E 024°46'4 8.3
2018-Apr-18 17:00N 59°30' E 024°39'2 4.3
2018-Apr-18 16:30N 59°27' E 024°39'0 0.3
2018-Apr-18 16:01N 59°28' E 024°39'2 3.1
2018-Apr-18 15:30N 59°29' E 024°38'510.7
2018-Apr-18 15:00N 59°34' E 024°40'5 9.1
2018-Apr-18 14:30N 59°38' E 024°45'510.4
2018-Apr-18 14:01N 59°34' E 024°52'5 9.6
2018-Apr-18 13:31N 59°30' E 024°57'1 1.5
2018-Apr-18 13:01N 59°30' E 024°56'0 0.0
2018-Apr-18 12:31N 59°30' E 024°56'0 0.0
2018-Apr-18 12:01N 59°30' E 024°56'0 0.0
2018-Apr-18 11:30N 59°30' E 024°56'0 0.0
2018-Apr-18 11:00N 59°30' E 024°56'0 0.0
2018-Apr-18 10:30N 59°30' E 024°56'0 0.0
2018-Apr-18 10:00N 59°30' E 024°56'0 0.0
2018-Apr-18 09:30N 59°30' E 024°56'0 0.0
2018-Apr-18 09:00N 59°30' E 024°56'0 0.0
2018-Apr-18 08:30N 59°30' E 024°56'0 0.0
2018-Apr-18 08:00N 59°30' E 024°56'0 0.0
2018-Apr-18 07:31N 59°30' E 024°56'0 0.0
2018-Apr-18 07:00N 59°30' E 024°56'0 0.0
2018-Apr-18 06:30N 59°30' E 024°56'0 0.0
2018-Apr-18 06:00N 59°30' E 024°56'0 0.0
2018-Apr-18 05:30N 59°30' E 024°56'0 0.0
2018-Apr-18 05:00N 59°30' E 024°56'0 0.0
2018-Apr-18 04:31N 59°30' E 024°56'0 0.0
2018-Apr-18 04:00N 59°30' E 024°56'0 0.0
2018-Apr-18 03:31N 59°30' E 024°56'0 0.0
2018-Apr-18 03:00N 59°30' E 024°56'0 0.0
2018-Apr-18 02:30N 59°30' E 024°56'0 0.0
2018-Apr-18 02:00N 59°30' E 024°56'0 0.0
2018-Apr-18 01:30N 59°30' E 024°56'0 0.0
2018-Apr-18 01:00N 59°30' E 024°56'0 0.0
2018-Apr-18 00:31N 59°30' E 024°56'0 0.0
2018-Apr-18 00:01N 59°30' E 024°56'0 0.0
2018-Apr-17 23:30N 59°30' E 024°56'0 0.0
2018-Apr-17 23:00N 59°30' E 024°56'0 0.0
2018-Apr-17 22:30N 59°30' E 024°56'1 1.4
2018-Apr-17 22:01N 59°30' E 024°58'1 1.3
2018-Apr-17 21:30N 59°30' E 024°56'0 0.0
2018-Apr-17 21:00N 59°30' E 024°56'0 0.0
2018-Apr-17 20:30N 59°30' E 024°56'0 0.0
2018-Apr-17 20:00N 59°30' E 024°56'4 7.8
2018-Apr-17 19:31N 59°33' E 024°54'510.5
2018-Apr-17 19:01N 59°37' E 024°46'3 6.9
2018-Apr-17 18:30N 59°34' E 024°42'510.6
2018-Apr-17 18:00N 59°29' E 024°38'2 3.2
2018-Apr-17 17:31N 59°28' E 024°39'0 0.6
2018-Apr-17 17:01N 59°28' E 024°39'0 0.0
2018-Apr-17 16:31N 59°28' E 024°39'0 0.0
2018-Apr-17 16:01N 59°28' E 024°39'0 0.0
2018-Apr-17 15:30N 59°28' E 024°39'0 0.0
2018-Apr-17 14:59N 59°28' E 024°39'0 0.0
2018-Apr-17 14:31N 59°28' E 024°39'0 0.0
2018-Apr-17 14:00N 59°28' E 024°39'0 0.0
2018-Apr-17 13:30N 59°28' E 024°39'0 0.7
2018-Apr-17 13:00N 59°28' E 024°39'2 4.5
2018-Apr-17 12:30N 59°30' E 024°38'510.7
2018-Apr-17 12:01N 59°35' E 024°42'3 6.2
2018-Apr-17 11:31N 59°36' E 024°47'510.6
2018-Apr-17 11:00N 59°33' E 024°55'3 6.4
2018-Apr-17 10:30N 59°30' E 024°57'0 0.9
2018-Apr-17 10:01N 59°30' E 024°56'0 0.0
2018-Apr-17 09:30N 59°30' E 024°56'0 0.0
2018-Apr-17 08:59N 59°30' E 024°56'0 0.0
2018-Apr-17 08:31N 59°30' E 024°56'0 0.0
2018-Apr-17 08:01N 59°30' E 024°56'0 0.0
2018-Apr-17 07:31N 59°30' E 024°56'0 0.0
2018-Apr-17 07:01N 59°30' E 024°56'0 0.0
2018-Apr-17 06:31N 59°30' E 024°56'0 0.0
2018-Apr-17 06:01N 59°30' E 024°56'0 0.0
2018-Apr-17 05:30N 59°30' E 024°56'0 0.0
2018-Apr-17 05:00N 59°30' E 024°56'0 0.0
2018-Apr-17 04:30N 59°30' E 024°56'0 0.0
2018-Apr-17 04:00N 59°30' E 024°56'0 0.0
2018-Apr-17 03:31N 59°30' E 024°56'0 0.0
2018-Apr-17 03:01N 59°30' E 024°56'0 0.0
2018-Apr-17 02:30N 59°30' E 024°56'0 0.0
2018-Apr-17 02:00N 59°30' E 024°56'0 0.0
2018-Apr-17 01:30N 59°30' E 024°56'0 0.0
2018-Apr-17 01:00N 59°30' E 024°56'0 0.0
2018-Apr-17 00:30N 59°30' E 024°56'0 0.0
2018-Apr-17 00:01N 59°30' E 024°56'0 0.0
2018-Apr-16 23:30N 59°30' E 024°56'0 0.0
2018-Apr-16 23:00N 59°30' E 024°56'0 0.0
2018-Apr-16 22:30N 59°30' E 024°56'0 0.0
2018-Apr-16 22:00N 59°30' E 024°56'0 0.0
2018-Apr-16 21:30N 59°30' E 024°56'0 0.0
2018-Apr-16 21:00N 59°30' E 024°56'0 0.0
2018-Apr-16 20:30N 59°30' E 024°56'0 0.0
2018-Apr-16 20:00N 59°30' E 024°56'0 0.0
2018-Apr-16 19:30N 59°30' E 024°56'0 0.0
2018-Apr-16 19:00N 59°30' E 024°56'0 0.0
2018-Apr-16 18:31N 59°30' E 024°56'0 0.0
2018-Apr-16 18:00N 59°30' E 024°56'0 0.0
2018-Apr-16 17:31N 59°30' E 024°56'0 0.0
2018-Apr-16 17:00N 59°30' E 024°56'0 0.0
2018-Apr-16 16:30N 59°30' E 024°56'0 0.0
2018-Apr-16 16:00N 59°30' E 024°56'0 0.0
2018-Apr-16 15:31N 59°30' E 024°56'0 0.0
2018-Apr-16 15:01N 59°30' E 024°56'0 0.0
2018-Apr-16 14:30N 59°30' E 024°56'0 0.0
2018-Apr-16 14:00N 59°30' E 024°56'0 0.0
2018-Apr-16 13:30N 59°30' E 024°56'0 0.0
2018-Apr-16 13:00N 59°30' E 024°56'0 0.0
2018-Apr-16 12:30N 59°30' E 024°56'0 0.0
2018-Apr-16 12:00N 59°30' E 024°56'0 0.0
2018-Apr-16 11:30N 59°30' E 024°56'0 0.0
2018-Apr-16 11:01N 59°30' E 024°56'0 0.0
2018-Apr-16 10:31N 59°30' E 024°56'0 0.0
2018-Apr-16 10:00N 59°30' E 024°56'0 0.0
2018-Apr-16 09:30N 59°30' E 024°56'0 0.0
2018-Apr-16 09:01N 59°30' E 024°56'0 0.0
2018-Apr-16 08:30N 59°30' E 024°56'0 0.0
2018-Apr-16 08:01N 59°30' E 024°56'0 0.0
2018-Apr-16 07:30N 59°30' E 024°56'  

Dump ship's entire track history